This is the latest recevied weather packets stored in our database for station/object KF0FSA. If no packets are shown the sender has not sent any weather packets the latest 10 day(s).
| Time | Temp. | Humidity | Pressure | Rain* | Wind** | Luminosity | Snow |
|---|---|---|---|---|---|---|---|
| 1777576694 | 11.11° C | 38% | 965.3 hPa | 0 mm | - | 380 W/m² | - |
| 1777576393 | 10.56° C | 38% | 965.1 hPa | 0 mm | - | 991 W/m² | - |
| 1777576214 | 10.56° C | 39% | 965.4 hPa | 0 mm | - | 296 W/m² | - |
| 1777575915 | 10.56° C | 40% | 965.3 hPa | 0 mm | - | 627 W/m² | - |
| 1777575490 | 10.56° C | 40% | 965.3 hPa | 0 mm | - | 685 W/m² | - |
| 1777575315 | 10.56° C | 38% | 965.6 hPa | 0 mm | - | 266 W/m² | - |
| 1777574890 | 10.56° C | 39% | 965.6 hPa | 0 mm | - | 408 W/m² | - |
| 1777574590 | 10.56° C | 40% | 965.6 hPa | 0 mm | - | 460 W/m² | - |
| 1777574415 | 10.56° C | 42% | 965.8 hPa | 0 mm | - | 335 W/m² | - |
| 1777573991 | 10.56° C | 41% | 965.6 hPa | 0 mm | - | 583 W/m² | - |
| 1777573690 | 10.56° C | 42% | 966 hPa | 0 mm | - | 327 W/m² | - |
| 1777573390 | 11.11° C | 40% | 966 hPa | 0 mm | - | 280 W/m² | - |
| 1777573091 | 11.11° C | 39% | 965.8 hPa | 0 mm | - | 305 W/m² | - |
| 1777572791 | 10.56° C | 41% | 965.6 hPa | 0 mm | - | 1093 W/m² | - |
| 1777572490 | 10° C | 41% | 966.3 hPa | 0 mm | - | 294 W/m² | - |
| 1777572192 | 10° C | 41% | 966.4 hPa | 0 mm | - | 288 W/m² | - |
| 1777571890 | 10.56° C | 41% | 966.4 hPa | 0 mm | - | 286 W/m² | - |
| 1777571590 | 11.11° C | 39% | 966.2 hPa | 0 mm | - | 307 W/m² | - |
| 1777571291 | 11.11° C | 40% | 965.7 hPa | 0 mm | - | 1163 W/m² | - |
| 1777570991 | 10° C | 44% | 965.8 hPa | 0 mm | - | 1083 W/m² | - |
| 1777570688 | 9.44° C | 42% | 966.5 hPa | 0 mm | - | 233 W/m² | - |
| 1777570512 | 10° C | 43% | 966.5 hPa | 0 mm | - | 283 W/m² | - |
| 1777570088 | 10° C | 44% | 966.4 hPa | 0 mm | - | 368 W/m² | - |
| 1777569788 | 10° C | 44% | 966.6 hPa | 0 mm | - | 410 W/m² | - |
| 1777569489 | 10° C | 43% | 966.7 hPa | 0 mm | - | 328 W/m² | - |
* Rain latest hour (hover to see other rain measurements)
** Current wind speed in m/s (hover to see current wind gust speed)